Time;durP1;ratioP1;P1;durP2;ratioP2;P2;SDS_P1;SDS_P2;PMS_P1;PMS_P2;Temp;Humidity;BMP_temperature;BMP_pressure;BME280_temperature;BME280_humidity;BME280_pressure;Samples;Min_cycle;Max_cycle;Signal;HPM_P1;HPM_P2
2022/08/25 00:01:54;;;;;;;56.63;51.38;;;;;;;21.32;100.00;100690.94;5008628;28;20050;-82
2022/08/25 00:04:22;;;;;;;56.45;50.83;;;;;;;21.30;100.00;100689.59;5008746;28;20064;-79
2022/08/25 00:06:49;;;;;;;54.92;49.38;;;;;;;21.08;100.00;100693.47;5009892;28;20115;-80
2022/08/25 00:09:20;;;;;;;57.78;51.75;;;;;;;21.27;100.00;100702.59;5011346;28;20054;-81
2022/08/25 00:11:48;;;;;;;56.60;51.67;;;;;;;21.22;100.00;100702.59;5011755;28;20494;-83
2022/08/25 00:14:19;;;;;;;57.60;51.88;;;;;;;20.59;100.00;100705.78;5012081;28;20061;-82
2022/08/25 00:16:47;;;;;;;59.28;53.97;;;;;;;20.94;100.00;100703.28;5013031;28;20042;-82
2022/08/25 00:19:18;;;;;;;61.88;55.92;;;;;;;21.11;100.00;100714.53;5011142;28;20042;-80
2022/08/25 00:21:45;;;;;;;61.47;55.58;;;;;;;20.47;100.00;100707.13;5011356;28;20046;-80
2022/08/25 00:24:15;;;;;;;58.60;53.10;;;;;;;20.70;100.00;100708.47;5012569;28;20053;-80
2022/08/25 00:26:46;;;;;;;52.67;47.60;;;;;;;20.35;100.00;100707.41;5013377;28;20060;-79
2022/08/25 00:29:15;;;;;;;55.20;50.45;;;;;;;20.27;100.00;100705.22;5010803;28;20463;-81
2022/08/25 00:31:42;;;;;;;56.08;50.47;;;;;;;20.37;100.00;100697.16;5009455;28;20108;-79
2022/08/25 00:34:14;;;;;;;54.72;49.72;;;;;;;20.20;100.00;100704.72;5007726;28;20054;-79
2022/08/25 00:36:42;;;;;;;57.53;51.90;;;;;;;20.69;100.00;100696.84;5008274;28;20057;-79
2022/08/25 00:39:10;;;;;;;59.17;53.50;;;;;;;20.73;100.00;100684.44;5010539;28;20046;-79
2022/08/25 00:41:38;;;;;;;57.67;52.13;;;;;;;20.74;100.00;100682.53;5005618;28;20045;-81
2022/08/25 00:44:09;;;;;;;58.08;52.22;;;;;;;20.51;100.00;100690.09;5011487;28;20046;-81
2022/08/25 00:46:39;;;;;;;59.83;53.60;;;;;;;20.75;100.00;100679.53;5011428;28;20054;-83
2022/08/25 00:49:13;;;;;;;56.67;50.75;;;;;;;20.86;100.00;100683.03;5005619;28;20439;-86
2022/08/25 00:51:42;;;;;;;55.03;49.78;;;;;;;20.69;100.00;100682.53;5011235;28;20053;-83
2022/08/25 00:54:15;;;;;;;53.95;48.50;;;;;;;20.67;100.00;100677.44;5007728;28;20119;-83
2022/08/25 00:56:44;;;;;;;59.80;53.47;;;;;;;20.71;100.00;100683.88;5006821;28;20139;-79
2022/08/25 00:59:16;;;;;;;53.40;48.65;;;;;;;20.37;100.00;100683.66;5006441;28;20049;-83
2022/08/25 01:01:42;;;;;;;53.42;47.90;;;;;;;20.11;100.00;100689.06;5000308;28;20069;-80
2022/08/25 01:04:09;;;;;;;55.95;50.22;;;;;;;20.28;100.00;100686.09;5008116;28;20050;-81
2022/08/25 01:06:40;;;;;;;52.65;47.50;;;;;;;20.03;100.00;100681.53;5006778;28;20041;-80
2022/08/25 01:09:07;;;;;;;53.85;48.20;;;;;;;20.15;100.00;100673.16;5008842;28;20060;-80
2022/08/25 01:11:36;;;;;;;52.67;47.65;;;;;;;20.28;100.00;100675.31;5010104;28;20368;-83
2022/08/25 01:14:05;;;;;;;55.13;49.70;;;;;;;20.35;100.00;100665.03;5012871;28;20054;-81
2022/08/25 01:16:34;;;;;;;53.40;48.10;;;;;;;20.34;100.00;100666.13;5008065;28;20050;-82
2022/08/25 01:19:04;;;;;;;53.95;48.65;;;;;;;19.88;100.00;100658.09;5014159;28;20054;-83
2022/08/25 01:21:39;;;;;;;59.45;53.58;;;;;;;19.91;100.00;100654.03;5009275;28;20049;-81
2022/08/25 01:24:07;;;;;;;57.80;52.53;;;;;;;20.27;100.00;100659.38;5012817;28;20057;-80
2022/08/25 01:26:36;;;;;;;54.28;48.65;;;;;;;20.22;100.00;100659.41;5006013;28;20057;-81
2022/08/25 01:29:24;;;;;;;58.58;53.25;;;;;;;19.91;100.00;100667.53;5008628;28;20123;-84
2022/08/25 01:31:56;;;;;;;52.92;47.70;;;;;;;19.62;100.00;100662.59;5009394;28;20115;-81
2022/08/25 01:34:24;;;;;;;51.20;46.45;;;;;;;19.85;100.00;100671.28;5011595;28;20466;-81
2022/08/25 01:36:55;;;;;;;49.28;44.33;;;;;;;19.74;100.00;100667.75;4999892;28;20054;-80
2022/08/25 01:39:24;;;;;;;51.25;45.00;;;;;;;19.98;100.00;100668.03;5007112;28;20073;-81
2022/08/25 01:42:13;;;;;;;49.42;44.60;;;;;;;19.83;100.00;100676.94;5011317;28;20475;-83
2022/08/25 01:44:43;;;;;;;48.08;43.60;;;;;;;19.92;100.00;100671.00;5006572;28;20050;-81
2022/08/25 01:47:12;;;;;;;53.10;47.60;;;;;;;19.98;100.00;100670.75;5007624;28;20097;-83
2022/08/25 01:49:40;;;;;;;50.38;45.40;;;;;;;20.01;100.00;100670.19;5006290;28;20050;-83
2022/08/25 01:52:12;;;;;;;50.70;45.45;;;;;;;19.83;100.00;100674.25;5010917;28;20041;-80
2022/08/25 01:54:39;;;;;;;48.70;44.40;;;;;;;19.65;100.00;100672.88;5008176;28;20058;-81
2022/08/25 01:57:06;;;;;;;47.83;43.00;;;;;;;19.19;100.00;100664.66;5009258;28;20061;-81
2022/08/25 01:59:33;;;;;;;49.72;44.67;;;;;;;19.62;100.00;100667.97;5007843;28;20045;-82
2022/08/25 02:02:00;;;;;;;49.17;44.05;;;;;;;19.61;100.00;100666.38;5136725;23;20046;-82
2022/08/25 02:04:30;;;;;;;50.80;45.95;;;;;;;19.64;100.00;100652.41;5022527;28;20060;-81
2022/08/25 02:06:57;;;;;;;50.58;45.65;;;;;;;19.49;100.00;100648.84;5022126;28;20137;-82
2022/08/25 02:09:26;;;;;;;44.88;40.95;;;;;;;19.18;100.00;100651.44;5015032;28;20560;-81
2022/08/25 02:11:59;;;;;;;56.50;50.35;;;;;;;19.80;100.00;100644.31;5027034;28;20050;-82
2022/08/25 02:14:27;;;;;;;50.40;45.38;;;;;;;19.79;100.00;100640.00;5024516;28;20045;-79
2022/08/25 02:16:55;;;;;;;52.15;46.83;;;;;;;19.80;100.00;100639.75;5020173;28;20059;-81
2022/08/25 02:19:23;;;;;;;51.38;46.63;;;;;;;19.96;100.00;100631.66;5022762;28;20045;-81
2022/08/25 02:21:50;;;;;;;50.83;45.78;;;;;;;20.01;100.00;100632.47;5026090;28;20054;-83
2022/08/25 02:24:17;;;;;;;56.47;45.85;;;;;;;19.92;100.00;100630.59;5018095;28;20057;-83
2022/08/25 02:26:46;;;;;;;53.63;48.33;;;;;;;19.78;100.00;100636.50;5022631;28;20050;-83
2022/08/25 02:29:13;;;;;;;53.63;48.28;;;;;;;19.59;100.00;100630.81;5020021;28;20068;-80
2022/08/25 02:31:41;;;;;;;63.72;57.03;;;;;;;19.68;100.00;100639.19;5023126;28;20060;-79
2022/08/25 02:34:10;;;;;;;60.97;54.50;;;;;;;19.67;100.00;100642.97;5018869;28;20046;-82
2022/08/25 02:36:38;;;;;;;57.70;51.90;;;;;;;19.64;100.00;100646.19;5021690;28;20045;-82
2022/08/25 02:39:08;;;;;;;52.05;47.03;;;;;;;19.51;100.00;100639.41;5018531;28;20070;-81
2022/08/25 02:41:37;;;;;;;52.00;46.97;;;;;;;19.15;100.00;100636.66;5016646;28;20053;-83
2022/08/25 02:44:07;;;;;;;53.83;48.55;;;;;;;19.35;100.00;100629.69;5021511;28;20050;-82
2022/08/25 02:46:34;;;;;;;49.22;44.42;;;;;;;19.42;100.00;100631.03;5021519;28;20045;-83
2022/08/25 02:49:02;;;;;;;52.97;46.85;;;;;;;19.72;100.00;100626.78;5024044;28;20054;-83
2022/08/25 02:51:30;;;;;;;51.90;46.33;;;;;;;19.79;100.00;100635.44;5021047;28;20045;-81
2022/08/25 02:53:58;;;;;;;52.72;46.72;;;;;;;19.68;100.00;100634.63;5014617;28;20137;-82
2022/08/25 02:56:26;;;;;;;50.55;45.40;;;;;;;19.62;100.00;100637.53;5024770;28;20054;-82
2022/08/25 02:58:53;;;;;;;53.72;48.22;;;;;;;19.48;100.00;100639.13;5024984;28;20037;-81
2022/08/25 03:01:21;;;;;;;53.30;47.55;;;;;;;19.56;100.00;100644.81;5027207;28;20449;-81
2022/08/25 03:03:50;;;;;;;46.83;42.25;;;;;;;19.20;100.00;100638.53;5029942;28;20053;-81
2022/08/25 03:06:21;;;;;;;47.63;43.13;;;;;;;19.09;100.00;100635.03;5024745;28;20382;-80
2022/08/25 03:08:48;;;;;;;46.67;41.83;;;;;;;19.20;100.00;100638.53;5018237;28;20042;-82
2022/08/25 03:11:16;;;;;;;46.83;41.95;;;;;;;19.47;100.00;100642.91;5020763;28;20064;-81
2022/08/25 03:13:43;;;;;;;44.53;40.30;;;;;;;19.03;100.00;100641.44;5023406;28;20056;-81
2022/08/25 03:16:10;;;;;;;47.13;42.30;;;;;;;19.34;100.00;100639.66;5022738;28;20061;-82
2022/08/25 03:18:40;;;;;;;48.42;43.42;;;;;;;19.52;100.00;100646.44;5026623;28;20422;-83
2022/08/25 03:21:07;;;;;;;52.78;47.65;;;;;;;19.37;100.00;100647.19;5021503;28;20524;-79
2022/08/25 03:23:35;;;;;;;46.80;42.15;;;;;;;19.15;100.00;100649.28;5024705;28;20048;-83
2022/08/25 03:28:46;;;;;;;53.15;48.08;;;;;;;19.22;100.00;100668.72;5024765;28;20090;-84
2022/08/25 03:31:13;;;;;;;53.35;48.65;;;;;;;18.85;100.00;100669.66;5018319;28;20061;-81
2022/08/25 03:33:46;;;;;;;49.65;45.50;;;;;;;18.96;100.00;100673.16;5022276;28;20398;-83
2022/08/25 03:36:13;;;;;;;49.45;44.70;;;;;;;19.17;100.00;100674.88;5025660;28;20057;-84
2022/08/25 03:38:40;;;;;;;53.35;48.80;;;;;;;18.96;100.00;100673.97;5029573;28;20042;-81
2022/08/25 03:41:15;;;;;;;48.70;44.60;;;;;;;19.13;100.00;100673.78;5024439;28;20049;-79
2022/08/25 03:43:44;;;;;;;46.58;42.10;;;;;;;19.28;100.00;100673.03;5029017;28;20057;-82
2022/08/25 03:46:18;;;;;;;47.25;43.10;;;;;;;19.15;100.00;100679.72;5027789;28;20057;-83
2022/08/25 03:48:47;;;;;;;51.03;46.47;;;;;;;19.30;100.00;100678.13;5028522;28;20041;-81
2022/08/25 03:51:19;;;;;;;56.30;51.58;;;;;;;19.21;100.00;100678.66;5024643;28;20064;-81
2022/08/25 03:53:47;;;;;;;51.53;47.10;;;;;;;18.75;100.00;100678.44;5021290;28;20037;-81
2022/08/25 03:56:14;;;;;;;55.60;50.60;;;;;;;19.26;100.00;100668.97;5029990;28;20478;-81
2022/08/25 03:58:41;;;;;;;56.42;50.45;;;;;;;19.47;100.00;100669.84;5025539;28;20049;-83
2022/08/25 04:01:08;;;;;;;49.15;44.92;;;;;;;19.22;100.00;100674.91;5026572;28;20052;-82
2022/08/25 04:03:36;;;;;;;51.30;46.92;;;;;;;19.44;100.00;100674.69;5020840;28;21767;-83
2022/08/25 04:06:07;;;;;;;52.47;47.28;;;;;;;19.58;100.00;100676.88;5026874;28;20049;-80
2022/08/25 04:08:34;;;;;;;52.83;47.97;;;;;;;19.48;100.00;100677.66;5021403;28;20128;-83
2022/08/25 04:11:06;;;;;;;50.38;45.63;;;;;;;19.34;100.00;100679.25;5029872;28;20045;-82
2022/08/25 04:13:34;;;;;;;51.67;46.97;;;;;;;19.50;100.00;100688.97;5021776;28;20480;-83
2022/08/25 04:16:02;;;;;;;49.13;44.20;;;;;;;19.63;100.00;100690.34;5023845;28;20332;-81
2022/08/25 04:18:29;;;;;;;49.95;45.63;;;;;;;19.53;100.00;100688.44;5024849;28;20368;-81
2022/08/25 04:21:04;;;;;;;51.80;46.80;;;;;;;19.70;100.00;100684.72;5027382;28;20049;-83
2022/08/25 04:23:33;;;;;;;52.03;47.38;;;;;;;19.82;100.00;100690.69;5031457;28;20394;-84
2022/08/25 04:26:08;;;;;;;53.88;48.80;;;;;;;19.87;100.00;100693.38;5020521;28;20111;-83
2022/08/25 04:28:35;;;;;;;52.92;48.13;;;;;;;19.60;100.00;100688.19;5030498;28;20055;-82
2022/08/25 04:31:02;;;;;;;48.85;43.88;;;;;;;19.59;100.00;100697.34;5021910;28;20054;-81
2022/08/25 04:33:30;;;;;;;51.05;46.50;;;;;;;19.78;100.00;100703.88;5021870;28;20119;-80
2022/08/25 04:35:57;;;;;;;72.75;66.80;;;;;;;20.01;100.00;100699.84;5020453;28;20103;-82
2022/08/25 04:38:26;;;;;;;67.07;61.53;;;;;;;19.71;100.00;100695.25;5021169;28;20053;-81
2022/08/25 04:40:57;;;;;;;47.50;42.90;;;;;;;19.70;100.00;100701.72;5025691;28;20050;-83
2022/08/25 04:43:25;;;;;;;46.20;42.10;;;;;;;19.90;100.00;100698.22;5020562;28;20072;-79
2022/08/25 04:45:52;;;;;;;51.65;47.22;;;;;;;19.86;100.00;100697.97;5024374;28;20061;-81
2022/08/25 04:48:19;;;;;;;49.80;45.15;;;;;;;19.95;100.00;100695.53;5020069;28;20061;-80
2022/08/25 04:50:46;;;;;;;51.67;46.63;;;;;;;20.31;100.00;100695.53;5027151;28;20157;-80
2022/08/25 04:53:20;;;;;;;55.63;49.92;;;;;;;20.72;100.00;100690.09;5020806;28;20046;-83
2022/08/25 04:55:48;;;;;;;50.45;45.70;;;;;;;21.01;100.00;100688.38;5023029;28;20097;-80
2022/08/25 04:58:16;;;;;;;52.50;47.72;;;;;;;21.23;100.00;100689.91;5022343;28;20046;-83
2022/08/25 05:00:45;;;;;;;77.88;71.50;;;;;;;21.30;100.00;100682.28;5025130;28;20056;-84
2022/08/25 05:03:13;;;;;;;72.82;66.00;;;;;;;21.26;100.00;100690.16;5025599;28;20048;-82
2022/08/25 05:05:39;;;;;;;76.47;70.30;;;;;;;21.39;100.00;100694.19;5023596;28;20050;-80
2022/08/25 05:08:06;;;;;;;75.30;68.75;;;;;;;21.49;100.00;100691.41;5020952;28;20103;-83
2022/08/25 05:10:34;;;;;;;75.68;69.30;;;;;;;21.45;100.00;100690.38;5020238;28;20104;-80
2022/08/25 05:13:02;;;;;;;75.57;69.05;;;;;;;21.69;100.00;100681.56;5022810;28;20045;-81
2022/08/25 05:18:14;;;;;;;77.18;69.18;;;;;;;21.87;100.00;100688.97;5026742;28;20099;-80
2022/08/25 05:20:41;;;;;;;72.00;65.65;;;;;;;22.05;100.00;100692.09;5022861;28;20057;-81
2022/08/25 05:23:10;;;;;;;75.57;69.53;;;;;;;22.03;100.00;100687.00;5019136;28;20053;-82
2022/08/25 05:25:37;;;;;;;78.80;72.25;;;;;;;22.21;100.00;100687.41;5023448;28;20048;-80
2022/08/25 05:28:07;;;;;;;68.35;62.13;;;;;;;22.16;100.00;100696.34;5023934;28;20470;-83
2022/08/25 05:30:34;;;;;;;69.45;62.63;;;;;;;22.05;100.00;100690.19;5025359;28;20490;-80
2022/08/25 05:33:03;;;;;;;71.53;64.80;;;;;;;22.09;100.00;100687.75;5023181;28;20437;-80
2022/08/25 05:35:30;;;;;;;71.82;66.60;;;;;;;22.59;100.00;100691.91;5021063;28;20133;-79
2022/08/25 05:37:56;;;;;;;70.88;64.05;;;;;;;22.80;100.00;100691.69;5021642;28;20053;-80
2022/08/25 05:40:23;;;;;;;69.63;63.38;;;;;;;23.07;100.00;100693.81;5027438;28;20042;-83
2022/08/25 05:42:50;;;;;;;52.25;47.58;;;;;;;22.99;100.00;100680.91;5023618;28;20046;-79
2022/08/25 05:45:19;;;;;;;53.50;48.88;;;;;;;23.50;100.00;100680.25;5022616;28;20054;-82
2022/08/25 05:47:46;;;;;;;51.63;46.97;;;;;;;23.52;100.00;100678.84;5021226;28;20050;-80
2022/08/25 05:50:14;;;;;;;57.75;52.33;;;;;;;23.35;100.00;100678.56;5019164;28;20057;-82
2022/08/25 05:52:41;;;;;;;52.28;47.33;;;;;;;23.67;100.00;100668.88;5026259;28;20045;-82
2022/08/25 05:55:08;;;;;;;58.47;53.10;;;;;;;23.73;100.00;100679.38;5020470;28;20049;-81
2022/08/25 05:57:38;;;;;;;61.75;47.95;;;;;;;23.80;100.00;100675.50;5027222;28;20474;-80
2022/08/25 06:00:10;;;;;;;49.38;43.50;;;;;;;23.89;100.00;100674.53;5021385;28;20042;-80
2022/08/25 06:02:44;;;;;;;53.65;47.88;;;;;;;24.23;100.00;100670.69;5019593;28;20060;-83
2022/08/25 06:05:15;;;;;;;56.55;50.90;;;;;;;24.23;100.00;100671.50;5022113;28;20046;-80
2022/08/25 06:07:42;;;;;;;46.13;41.72;;;;;;;24.38;100.00;100667.69;5023058;28;20056;-80
2022/08/25 06:10:15;;;;;;;46.70;42.83;;;;;;;24.39;100.00;100665.81;5023496;28;20054;-79
2022/08/25 06:12:44;;;;;;;52.08;46.92;;;;;;;24.58;100.00;100674.69;5027556;28;20061;-81
2022/08/25 06:15:13;;;;;;;57.22;51.72;;;;;;;24.32;100.00;100668.91;5019419;28;20081;-80
2022/08/25 06:17:41;;;;;;;53.50;48.03;;;;;;;24.62;100.00;100674.91;5022572;28;20050;-81
2022/08/25 06:20:14;;;;;;;56.83;51.63;;;;;;;25.16;100.00;100667.84;5018547;28;20112;-80
2022/08/25 06:22:42;;;;;;;57.50;51.78;;;;;;;25.16;100.00;100664.34;5024086;28;20045;-80
2022/08/25 06:25:13;;;;;;;60.13;53.17;;;;;;;25.19;100.00;100661.00;5025067;28;20050;-83
2022/08/25 06:27:41;;;;;;;52.60;47.93;;;;;;;25.19;100.00;100659.09;5020929;28;20081;-79
2022/08/25 06:30:11;;;;;;;48.90;43.33;;;;;;;25.08;100.00;100658.50;5022039;28;20514;-79
2022/08/25 06:32:40;;;;;;;49.75;45.80;;;;;;;25.04;100.00;100651.25;5022013;28;20168;-81
2022/08/25 06:35:11;;;;;;;49.70;45.40;;;;;;;25.02;100.00;100653.44;5028130;28;20057;-79
2022/08/25 06:37:40;;;;;;;52.90;48.20;;;;;;;25.18;100.00;100652.06;5025476;28;20046;-82
2022/08/25 06:40:12;;;;;;;49.20;44.60;;;;;;;25.35;100.00;100644.03;5025850;28;20085;-80
2022/08/25 06:42:39;;;;;;;46.55;42.67;;;;;;;25.21;100.00;100656.09;5026945;28;20455;-80
2022/08/25 06:45:09;;;;;;;50.15;45.13;;;;;;;25.34;100.00;100649.78;5022735;28;20176;-80
2022/08/25 06:47:36;;;;;;;53.78;48.38;;;;;;;25.61;100.00;100651.63;5023236;28;20045;-82
2022/08/25 06:50:04;;;;;;;49.35;44.97;;;;;;;26.07;100.00;100650.50;5028198;28;20405;-80
2022/08/25 06:52:33;;;;;;;51.85;46.72;;;;;;;26.64;100.00;100655.28;5027691;28;20060;-81
2022/08/25 06:55:02;;;;;;;53.55;48.03;;;;;;;26.37;100.00;100654.34;5026598;28;20065;-80
2022/08/25 06:57:30;;;;;;;51.03;46.28;;;;;;;26.37;100.00;100653.53;5027523;28;20042;-82
2022/08/25 06:59:56;;;;;;;56.50;47.05;;;;;;;26.88;100.00;100647.50;5030710;28;20051;-79
2022/08/25 07:02:26;;;;;;;47.67;42.88;;;;;;;26.77;100.00;100662.53;5026291;28;20054;-82
2022/08/25 07:04:53;;;;;;;47.08;42.50;;;;;;;26.70;100.00;100671.16;5026175;28;20466;-86
2022/08/25 07:07:20;;;;;;;50.55;45.78;;;;;;;26.47;100.00;100661.44;5026886;28;20124;-81
2022/08/25 07:09:48;;;;;;;49.40;45.67;;;;;;;26.51;100.00;100667.91;5029055;28;20053;-82
2022/08/25 07:12:17;;;;;;;51.78;46.15;;;;;;;26.39;100.00;100664.94;5022299;28;20084;-80
2022/08/25 07:14:44;;;;;;;50.70;45.08;;;;;;;26.13;100.00;100664.78;5020751;28;20049;-80
2022/08/25 07:17:10;;;;;;;49.95;45.85;;;;;;;26.19;100.00;100663.53;5023304;28;20045;-79
2022/08/25 07:19:37;;;;;;;50.58;45.80;;;;;;;26.28;100.00;100670.63;5022470;28;20053;-81
2022/08/25 07:22:04;;;;;;;53.15;48.40;;;;;;;26.29;100.00;100674.16;5029223;28;20505;-80
2022/08/25 07:24:31;;;;;;;51.72;46.20;;;;;;;26.31;100.00;100661.03;5027594;28;20071;-78
2022/08/25 07:26:59;;;;;;;52.10;47.60;;;;;;;26.48;100.00;100665.78;5031768;28;20049;-82
2022/08/25 07:29:28;;;;;;;48.95;43.92;;;;;;;26.53;100.00;100664.84;5027152;28;20050;-79
2022/08/25 07:31:55;;;;;;;51.65;47.10;;;;;;;26.71;100.00;100659.13;5023007;28;20058;-81
2022/08/25 07:37:06;;;;;;;34.30;30.65;;;;;;;27.48;100.00;100662.34;5025445;28;20056;-82
2022/08/25 07:39:34;;;;;;;35.38;26.98;;;;;;;27.59;100.00;100646.44;5027612;28;20057;-82
2022/08/25 07:42:03;;;;;;;40.65;28.52;;;;;;;27.84;100.00;100650.31;5024848;28;20477;-81
2022/08/25 07:44:30;;;;;;;34.22;27.55;;;;;;;28.22;100.00;100644.91;5024733;28;20049;-82
2022/08/25 07:46:57;;;;;;;30.50;27.02;;;;;;;28.18;93.36;100652.16;5024215;28;20375;-80
2022/08/25 07:49:28;;;;;;;33.17;29.33;;;;;;;27.99;100.00;100649.81;5020989;28;20061;-83
2022/08/25 07:51:57;;;;;;;48.47;29.08;;;;;;;27.86;98.74;100645.31;5028018;28;20074;-80
2022/08/25 07:54:26;;;;;;;42.65;28.42;;;;;;;27.92;100.00;100649.47;5029384;28;20053;-79
2022/08/25 07:56:52;;;;;;;40.15;36.10;;;;;;;28.11;100.00;100651.03;5020204;28;20072;-79
2022/08/25 07:59:21;;;;;;;55.25;50.45;;;;;;;28.66;93.25;100647.50;5023984;28;20045;-82
2022/08/25 08:01:48;;;;;;;29.90;26.90;;;;;;;28.60;100.00;100648.81;5020818;28;20049;-80
2022/08/25 08:04:15;;;;;;;33.00;28.27;;;;;;;29.05;92.96;100651.78;5019946;28;20136;-79
2022/08/25 08:06:41;;;;;;;31.17;27.80;;;;;;;28.92;100.00;100650.06;5024033;28;20127;-79
2022/08/25 08:09:08;;;;;;;37.15;27.92;;;;;;;28.89;90.62;100653.47;5023052;28;20446;-83
2022/08/25 08:11:39;;;;;;;34.17;30.95;;;;;;;29.20;88.58;100643.00;5024618;28;20241;-80
2022/08/25 08:14:10;;;;;;;35.30;30.02;;;;;;;29.39;78.77;100642.53;5028495;28;20112;-81
2022/08/25 08:16:39;;;;;;;31.17;28.42;;;;;;;29.53;100.00;100650.44;5025672;28;20393;-82
2022/08/25 08:19:06;;;;;;;32.60;29.77;;;;;;;29.41;88.92;100633.97;5025040;28;20057;-79
2022/08/25 08:21:35;;;;;;;38.40;34.58;;;;;;;29.59;89.48;100640.91;5027850;28;20103;-83
2022/08/25 08:24:05;;;;;;;33.00;29.73;;;;;;;29.55;78.49;100639.97;5023538;28;20045;-79
2022/08/25 08:26:32;;;;;;;33.08;29.75;;;;;;;29.54;91.50;100629.38;5025870;28;20044;-78
2022/08/25 08:29:04;;;;;;;33.55;30.05;;;;;;;29.72;72.59;100630.03;5020010;28;20227;-83
2022/08/25 08:31:31;;;;;;;33.28;30.15;;;;;;;29.92;74.08;100634.63;5023655;28;20057;-81
2022/08/25 08:33:59;;;;;;;34.10;30.77;;;;;;;30.27;82.89;100635.06;5021812;28;20057;-78
2022/08/25 08:36:28;;;;;;;33.47;30.67;;;;;;;30.29;68.65;100632.00;5025200;28;20085;-82
2022/08/25 08:38:59;;;;;;;33.63;30.48;;;;;;;30.25;65.61;100625.59;5019967;28;20049;-82
2022/08/25 08:44:42;;;;;;;34.85;31.52;;;;;;;30.66;63.63;100629.25;5024971;28;20080;-81
2022/08/25 08:47:21;;;;;;;33.10;29.83;;;;;;;30.37;72.67;100625.59;5023475;28;20390;-80
2022/08/25 08:50:03;;;;;;;34.55;31.83;;;;;;;30.58;73.19;100626.28;5023550;28;20057;-82
2022/08/25 08:52:45;;;;;;;34.20;30.98;;;;;;;30.92;69.02;100623.41;5022646;28;20049;-82
2022/08/25 08:55:26;;;;;;;32.00;28.58;;;;;;;30.73;69.39;100624.78;5019487;28;20038;-81
2022/08/25 08:57:55;;;;;;;32.95;29.77;;;;;;;30.18;62.40;100611.66;5018296;28;20069;-82
2022/08/25 09:00:24;;;;;;;37.47;30.25;;;;;;;30.75;67.11;100610.75;5021710;28;20133;-81
2022/08/25 09:02:57;;;;;;;33.63;30.55;;;;;;;31.00;66.25;100606.84;5022360;28;20140;-82
2022/08/25 09:05:29;;;;;;;33.28;30.05;;;;;;;31.09;66.94;100608.66;5026905;28;20062;-79
2022/08/25 09:07:59;;;;;;;33.47;30.48;;;;;;;32.18;68.83;100609.28;5019098;28;20049;-82
2022/08/25 09:10:33;;;;;;;36.40;33.50;;;;;;;31.19;62.57;100599.91;5017033;28;20064;-79
2022/08/25 09:13:08;;;;;;;35.05;32.05;;;;;;;31.18;67.70;100603.81;5029529;28;20128;-78
2022/08/25 09:18:40;;;;;;;38.13;34.67;;;;;;;31.31;69.08;100602.63;5031782;28;20074;-81
2022/08/25 09:21:14;;;;;;;38.72;36.13;;;;;;;30.64;66.25;100596.69;5021204;28;20085;-81
2022/08/25 09:24:03;;;;;;;40.08;36.60;;;;;;;31.75;59.43;100591.69;5022902;28;20046;-82
2022/08/25 09:26:36;;;;;;;35.97;32.55;;;;;;;31.90;51.51;100596.44;5019132;28;20056;-78
2022/08/25 09:29:04;;;;;;;;;;;;;;;31.74;52.90;100581.06;5022356;28;20203;-79
2022/08/25 09:31:34;;;;;;;39.47;35.90;;;;;;;32.59;56.10;100585.94;5020852;28;19925;-80
2022/08/25 09:34:04;;;;;;;36.78;33.40;;;;;;;33.01;50.54;100571.56;5020951;28;20089;-80
2022/08/25 09:36:34;;;;;;;38.90;35.78;;;;;;;32.83;52.24;100579.41;5021087;28;20046;-81
2022/08/25 09:39:01;;;;;;;37.47;34.20;;;;;;;32.70;54.43;100577.94;5019835;28;20050;-85
2022/08/25 09:41:48;;;;;;;39.83;36.78;;;;;;;31.82;53.11;100572.66;5019660;28;20111;-82
2022/08/25 09:44:21;;;;;;;41.35;37.88;;;;;;;32.66;50.95;100566.06;5023673;28;20041;-82
2022/08/25 09:47:00;;;;;;;38.60;34.75;;;;;;;32.65;49.11;100564.47;5024269;28;20080;-82
2022/08/25 09:49:36;;;;;;;36.28;33.47;;;;;;;33.32;43.93;100569.81;5019093;28;20062;-80
2022/08/25 09:52:34;;;;;;;36.38;32.83;;;;;;;32.21;51.75;100561.06;5020766;28;20139;-80
2022/08/25 09:55:30;;;;;;;34.20;31.33;;;;;;;32.84;54.99;100558.19;5021923;28;20564;-82
2022/08/25 09:57:58;;;;;;;33.15;29.90;;;;;;;32.26;48.86;100563.56;5026291;28;20251;-81
2022/08/25 10:00:28;;;;;;;32.95;30.30;;;;;;;32.79;52.35;100563.97;5025402;28;20470;-82
2022/08/25 10:03:06;;;;;;;39.00;35.55;;;;;;;32.28;48.52;100558.47;5021527;28;20526;-78
2022/08/25 10:05:35;;;;;;;38.72;34.88;;;;;;;32.84;49.17;100556.25;5024272;28;20054;-81
2022/08/25 10:08:12;;;;;;;37.83;34.88;;;;;;;32.94;43.02;100545.81;5022847;28;20132;-81
2022/08/25 10:10:46;;;;;;;40.03;35.75;;;;;;;32.76;44.27;100542.69;5027047;28;20124;-83
2022/08/25 10:13:20;;;;;;;40.22;36.88;;;;;;;33.16;48.90;100547.06;5024989;28;20075;-82
2022/08/25 10:15:47;;;;;;;39.75;36.80;;;;;;;33.18;40.94;100528.25;5024804;28;20071;-80
2022/08/25 10:18:24;;;;;;;39.25;36.00;;;;;;;32.68;45.45;100536.28;5020979;28;20461;-82
2022/08/25 10:21:13;;;;;;;39.42;36.75;;;;;;;33.78;41.12;100527.78;5023886;28;20096;-83
2022/08/25 10:23:47;;;;;;;36.17;32.80;;;;;;;34.65;41.13;100529.53;5021971;28;20096;-79
2022/08/25 10:26:29;;;;;;;35.55;32.60;;;;;;;34.65;39.21;100517.72;5025887;28;20402;-79
2022/08/25 10:29:03;;;;;;;;;;;;;;;34.18;40.18;100521.75;5028233;28;20057;-79
2022/08/25 10:31:40;;;;;;;35.25;32.35;;;;;;;33.44;40.15;100517.34;5025251;28;19921;-82
2022/08/25 10:34:21;;;;;;;31.23;28.38;;;;;;;33.36;38.82;100514.84;5027579;28;20048;-80
2022/08/25 10:37:01;;;;;;;35.00;31.55;;;;;;;33.26;39.60;100514.28;5028819;28;20077;-78
2022/08/25 10:39:39;;;;;;;38.55;35.13;;;;;;;33.77;37.56;100498.63;5030020;28;20180;-83
2022/08/25 10:42:18;;;;;;;41.65;37.92;;;;;;;33.70;38.96;100504.81;5023886;28;20131;-80
2022/08/25 10:47:59;;;;;;;38.42;35.20;;;;;;;33.36;39.52;100498.31;5028103;28;20052;-83
2022/08/25 10:50:33;;;;;;;41.45;37.55;;;;;;;33.98;46.17;100491.53;5024772;28;20072;-84
2022/08/25 10:53:14;;;;;;;37.28;34.40;;;;;;;34.31;40.42;100492.78;5022998;28;20050;-80
2022/08/25 10:55:54;;;;;;;39.33;35.83;;;;;;;33.95;40.80;100497.78;5026958;28;20088;-83
2022/08/25 10:58:30;;;;;;;38.58;35.08;;;;;;;33.65;37.73;100488.59;5020229;28;20052;-79
2022/08/25 11:01:09;;;;;;;35.70;32.13;;;;;;;34.77;37.76;100487.13;5024439;28;20045;-80
2022/08/25 11:03:48;;;;;;;46.60;42.78;;;;;;;35.00;42.25;100486.19;5020056;28;20058;-81
2022/08/25 11:06:20;;;;;;;35.75;32.58;;;;;;;34.06;46.36;100477.88;5021002;28;20387;-80
2022/08/25 11:08:51;;;;;;;46.15;42.08;;;;;;;34.06;35.33;100475.91;5025708;28;20042;-82
2022/08/25 11:11:26;;;;;;;44.13;38.95;;;;;;;34.42;36.69;100466.19;5023595;28;20041;-79
2022/08/25 11:13:57;;;;;;;32.60;29.40;;;;;;;34.19;38.87;100459.94;5023993;28;20042;-83
2022/08/25 11:16:34;;;;;;;33.72;27.75;;;;;;;34.61;36.41;100464.47;5027092;28;20050;-80
2022/08/25 11:19:09;;;;;;;38.15;27.00;;;;;;;35.39;37.39;100469.25;5032667;28;20060;-81
2022/08/25 11:21:44;;;;;;;33.78;26.15;;;;;;;35.38;39.20;100457.44;5025482;28;20046;-80
2022/08/25 11:24:27;;;;;;;30.30;27.35;;;;;;;35.14;37.88;100458.78;5028826;28;20053;-79
2022/08/25 11:26:57;;;;;;;32.10;29.02;;;;;;;34.82;37.37;100455.66;5027161;28;20156;-82
2022/08/25 11:29:31;;;;;;;32.08;28.73;;;;;;;35.46;37.59;100450.00;5023304;28;20052;-83
2022/08/25 11:32:00;;;;;;;38.83;35.58;;;;;;;35.37;33.88;100452.28;5023356;28;20072;-83
2022/08/25 11:34:32;;;;;;;35.17;31.48;;;;;;;34.98;34.32;100447.97;5024325;28;20127;-77
2022/08/25 11:50:03;;;;;;;32.75;29.48;;;;;;;33.33;43.60;100446.75;5090631;27;20400;-80